sensor_id;sensor_type;location;lat;lon;timestamp;P1;durP1;ratioP1;P2;durP2;ratioP2
81310;SDS011;70779;52.506;5.492;2023-11-21T05:47:42;9.63;;;2.75;;
81310;SDS011;70779;52.506;5.492;2023-11-21T05:50:12;9.00;;;2.30;;
81310;SDS011;70779;52.506;5.492;2023-11-21T05:52:42;9.95;;;2.15;;
81310;SDS011;70779;52.506;5.492;2023-11-21T05:55:10;11.75;;;2.75;;
81310;SDS011;70779;52.506;5.492;2023-11-21T05:57:36;9.93;;;2.88;;
81310;SDS011;70779;52.506;5.492;2023-11-21T06:00:04;7.90;;;2.38;;
81310;SDS011;70779;52.506;5.492;2023-11-21T06:02:38;8.32;;;1.88;;
81310;SDS011;70779;52.506;5.492;2023-11-21T06:05:09;8.73;;;2.20;;
81310;SDS011;70779;52.506;5.492;2023-11-21T06:07:36;7.05;;;2.10;;
81310;SDS011;70779;52.506;5.492;2023-11-21T06:10:10;6.68;;;1.60;;
81310;SDS011;70779;52.506;5.492;2023-11-21T06:12:40;7.07;;;2.42;;
81310;SDS011;70779;52.506;5.492;2023-11-21T06:15:08;9.32;;;1.70;;
81310;SDS011;70779;52.506;5.492;2023-11-21T06:17:35;15.50;;;2.65;;
81310;SDS011;70779;52.506;5.492;2023-11-21T06:20:05;9.70;;;2.47;;
81310;SDS011;70779;52.506;5.492;2023-11-21T06:22:36;10.90;;;2.58;;
81310;SDS011;70779;52.506;5.492;2023-11-21T06:25:02;14.40;;;3.38;;
81310;SDS011;70779;52.506;5.492;2023-11-21T06:27:34;13.05;;;3.20;;
81310;SDS011;70779;52.506;5.492;2023-11-21T06:30:10;11.88;;;2.90;;
81310;SDS011;70779;52.506;5.492;2023-11-21T06:32:37;9.98;;;2.45;;
81310;SDS011;70779;52.506;5.492;2023-11-21T06:35:05;12.20;;;3.50;;
81310;SDS011;70779;52.506;5.492;2023-11-21T06:37:32;14.23;;;4.10;;
81310;SDS011;70779;52.506;5.492;2023-11-21T06:39:59;14.63;;;3.80;;
81310;SDS011;70779;52.506;5.492;2023-11-21T06:42:26;11.05;;;3.10;;
81310;SDS011;70779;52.506;5.492;2023-11-21T06:44:53;15.45;;;3.42;;
81310;SDS011;70779;52.506;5.492;2023-11-21T06:47:27;9.02;;;3.75;;
81310;SDS011;70779;52.506;5.492;2023-11-21T06:49:56;13.63;;;4.80;;
81310;SDS011;70779;52.506;5.492;2023-11-21T06:52:22;13.95;;;4.45;;
81310;SDS011;70779;52.506;5.492;2023-11-21T06:54:48;16.08;;;4.85;;
81310;SDS011;70779;52.506;5.492;2023-11-21T06:57:17;13.73;;;6.15;;
81310;SDS011;70779;52.506;5.492;2023-11-21T06:59:43;16.88;;;6.15;;
81310;SDS011;70779;52.506;5.492;2023-11-21T07:02:10;17.50;;;5.90;;
81310;SDS011;70779;52.506;5.492;2023-11-21T07:04:36;15.68;;;5.65;;
81310;SDS011;70779;52.506;5.492;2023-11-21T07:07:03;16.60;;;6.30;;
81310;SDS011;70779;52.506;5.492;2023-11-21T07:09:29;13.43;;;5.47;;
81310;SDS011;70779;52.506;5.492;2023-11-21T07:11:56;13.43;;;5.28;;
81310;SDS011;70779;52.506;5.492;2023-11-21T07:14:23;14.85;;;6.15;;
81310;SDS011;70779;52.506;5.492;2023-11-21T07:16:49;16.92;;;6.82;;
81310;SDS011;70779;52.506;5.492;2023-11-21T07:19:15;17.08;;;7.18;;
81310;SDS011;70779;52.506;5.492;2023-11-21T07:21:41;15.18;;;6.07;;
81310;SDS011;70779;52.506;5.492;2023-11-21T07:24:07;19.50;;;6.72;;
81310;SDS011;70779;52.506;5.492;2023-11-21T07:26:34;11.57;;;5.65;;
81310;SDS011;70779;52.506;5.492;2023-11-21T07:29:03;15.57;;;5.65;;
81310;SDS011;70779;52.506;5.492;2023-11-21T07:31:30;14.25;;;5.53;;
81310;SDS011;70779;52.506;5.492;2023-11-21T07:33:57;12.27;;;4.75;;
81310;SDS011;70779;52.506;5.492;2023-11-21T07:36:23;13.13;;;5.00;;
81310;SDS011;70779;52.506;5.492;2023-11-21T07:38:50;11.18;;;4.88;;
81310;SDS011;70779;52.506;5.492;2023-11-21T07:41:16;12.30;;;4.68;;
81310;SDS011;70779;52.506;5.492;2023-11-21T07:43:43;9.55;;;3.95;;
81310;SDS011;70779;52.506;5.492;2023-11-21T07:46:10;9.88;;;4.07;;
81310;SDS011;70779;52.506;5.492;2023-11-21T07:48:38;7.75;;;3.72;;
81310;SDS011;70779;52.506;5.492;2023-11-21T07:51:05;8.25;;;4.20;;
81310;SDS011;70779;52.506;5.492;2023-11-21T07:53:34;7.18;;;3.80;;
81310;SDS011;70779;52.506;5.492;2023-11-21T07:56:05;9.07;;;3.90;;
81310;SDS011;70779;52.506;5.492;2023-11-21T07:58:33;8.57;;;3.88;;
81310;SDS011;70779;52.506;5.492;2023-11-21T08:01:01;6.93;;;3.55;;
81310;SDS011;70779;52.506;5.492;2023-11-21T08:03:28;8.18;;;3.67;;
81310;SDS011;70779;52.506;5.492;2023-11-21T08:06:00;5.25;;;2.65;;
81310;SDS011;70779;52.506;5.492;2023-11-21T08:08:28;6.07;;;3.15;;
81310;SDS011;70779;52.506;5.492;2023-11-21T08:10:54;6.55;;;2.88;;
81310;SDS011;70779;52.506;5.492;2023-11-21T08:13:24;7.20;;;3.40;;
81310;SDS011;70779;52.506;5.492;2023-11-21T08:15:53;5.25;;;2.72;;
81310;SDS011;70779;52.506;5.492;2023-11-21T08:18:19;4.10;;;2.25;;
81310;SDS011;70779;52.506;5.492;2023-11-21T08:20:45;3.88;;;1.98;;
81310;SDS011;70779;52.506;5.492;2023-11-21T08:23:15;4.88;;;2.25;;
81310;SDS011;70779;52.506;5.492;2023-11-21T08:25:44;4.28;;;2.33;;
81310;SDS011;70779;52.506;5.492;2023-11-21T08:28:10;5.75;;;2.50;;
81310;SDS011;70779;52.506;5.492;2023-11-21T08:30:37;4.93;;;2.60;;
81310;SDS011;70779;52.506;5.492;2023-11-21T08:33:04;6.93;;;2.60;;
81310;SDS011;70779;52.506;5.492;2023-11-21T08:35:30;4.93;;;2.30;;
81310;SDS011;70779;52.506;5.492;2023-11-21T08:37:57;6.65;;;2.95;;
81310;SDS011;70779;52.506;5.492;2023-11-21T08:40:23;7.25;;;3.40;;
81310;SDS011;70779;52.506;5.492;2023-11-21T08:42:49;6.70;;;3.38;;
81310;SDS011;70779;52.506;5.492;2023-11-21T08:45:17;7.57;;;4.22;;
81310;SDS011;70779;52.506;5.492;2023-11-21T08:47:43;11.48;;;4.40;;
81310;SDS011;70779;52.506;5.492;2023-11-21T08:50:10;9.48;;;4.60;;
81310;SDS011;70779;52.506;5.492;2023-11-21T08:52:38;9.10;;;4.15;;
81310;SDS011;70779;52.506;5.492;2023-11-21T08:55:06;14.00;;;5.50;;
81310;SDS011;70779;52.506;5.492;2023-11-21T08:57:38;8.88;;;4.18;;
81310;SDS011;70779;52.506;5.492;2023-11-21T09:00:06;12.48;;;5.30;;
81310;SDS011;70779;52.506;5.492;2023-11-21T09:02:37;8.63;;;4.50;;
81310;SDS011;70779;52.506;5.492;2023-11-21T09:05:07;9.93;;;5.38;;
81310;SDS011;70779;52.506;5.492;2023-11-21T09:07:35;11.85;;;5.40;;
81310;SDS011;70779;52.506;5.492;2023-11-21T09:10:05;12.65;;;5.03;;
81310;SDS011;70779;52.506;5.492;2023-11-21T09:12:33;13.07;;;5.57;;
81310;SDS011;70779;52.506;5.492;2023-11-21T09:15:06;12.85;;;5.68;;
81310;SDS011;70779;52.506;5.492;2023-11-21T09:17:35;13.13;;;5.05;;
81310;SDS011;70779;52.506;5.492;2023-11-21T09:20:01;12.55;;;5.20;;
81310;SDS011;70779;52.506;5.492;2023-11-21T09:22:29;12.63;;;5.43;;
81310;SDS011;70779;52.506;5.492;2023-11-21T09:24:56;16.48;;;6.43;;
81310;SDS011;70779;52.506;5.492;2023-11-21T09:27:23;12.00;;;5.55;;
81310;SDS011;70779;52.506;5.492;2023-11-21T09:29:51;12.93;;;4.80;;
81310;SDS011;70779;52.506;5.492;2023-11-21T09:32:18;14.70;;;6.88;;
81310;SDS011;70779;52.506;5.492;2023-11-21T09:34:47;14.30;;;5.68;;
81310;SDS011;70779;52.506;5.492;2023-11-21T09:37:17;16.15;;;7.60;;
81310;SDS011;70779;52.506;5.492;2023-11-21T09:39:43;17.67;;;7.18;;
81310;SDS011;70779;52.506;5.492;2023-11-21T09:42:12;22.55;;;8.43;;
81310;SDS011;70779;52.506;5.492;2023-11-21T09:44:48;17.45;;;7.65;;
81310;SDS011;70779;52.506;5.492;2023-11-21T09:47:24;20.50;;;6.95;;
81310;SDS011;70779;52.506;5.492;2023-11-21T09:49:50;21.15;;;8.13;;
81310;SDS011;70779;52.506;5.492;2023-11-21T09:52:26;17.80;;;6.93;;
81310;SDS011;70779;52.506;5.492;2023-11-21T09:54:53;19.13;;;7.47;;
81310;SDS011;70779;52.506;5.492;2023-11-21T09:57:24;20.52;;;8.27;;
81310;SDS011;70779;52.506;5.492;2023-11-21T09:59:51;16.63;;;7.22;;
81310;SDS011;70779;52.506;5.492;2023-11-21T10:02:27;20.50;;;7.65;;
81310;SDS011;70779;52.506;5.492;2023-11-21T10:04:58;16.33;;;7.60;;
81310;SDS011;70779;52.506;5.492;2023-11-21T10:07:25;17.52;;;7.25;;
81310;SDS011;70779;52.506;5.492;2023-11-21T10:09:54;14.30;;;7.07;;
81310;SDS011;70779;52.506;5.492;2023-11-21T10:12:21;15.57;;;6.10;;
81310;SDS011;70779;52.506;5.492;2023-11-21T10:14:49;17.08;;;6.65;;
81310;SDS011;70779;52.506;5.492;2023-11-21T10:17:18;14.13;;;5.88;;
81310;SDS011;70779;52.506;5.492;2023-11-21T10:19:46;13.05;;;5.13;;
81310;SDS011;70779;52.506;5.492;2023-11-21T10:22:16;12.48;;;5.38;;
81310;SDS011;70779;52.506;5.492;2023-11-21T10:24:42;15.30;;;5.47;;
81310;SDS011;70779;52.506;5.492;2023-11-21T10:27:09;10.65;;;4.75;;
81310;SDS011;70779;52.506;5.492;2023-11-21T10:29:35;15.20;;;5.68;;
81310;SDS011;70779;52.506;5.492;2023-11-21T10:32:01;12.48;;;4.90;;
81310;SDS011;70779;52.506;5.492;2023-11-21T10:34:29;13.43;;;5.20;;
81310;SDS011;70779;52.506;5.492;2023-11-21T10:36:55;11.75;;;5.22;;
81310;SDS011;70779;52.506;5.492;2023-11-21T10:39:23;10.90;;;4.80;;
81310;SDS011;70779;52.506;5.492;2023-11-21T10:41:54;11.65;;;5.03;;
81310;SDS011;70779;52.506;5.492;2023-11-21T10:44:21;11.60;;;5.20;;
81310;SDS011;70779;52.506;5.492;2023-11-21T10:46:53;12.02;;;4.78;;
81310;SDS011;70779;52.506;5.492;2023-11-21T10:49:24;9.40;;;4.82;;
81310;SDS011;70779;52.506;5.492;2023-11-21T10:51:52;14.95;;;5.28;;
81310;SDS011;70779;52.506;5.492;2023-11-21T10:54:22;11.23;;;5.60;;
81310;SDS011;70779;52.506;5.492;2023-11-21T10:56:53;13.98;;;5.20;;
81310;SDS011;70779;52.506;5.492;2023-11-21T10:59:22;13.10;;;5.22;;
81310;SDS011;70779;52.506;5.492;2023-11-21T11:01:50;10.93;;;5.38;;
81310;SDS011;70779;52.506;5.492;2023-11-21T11:04:18;11.20;;;5.63;;
81310;SDS011;70779;52.506;5.492;2023-11-21T11:06:54;10.80;;;4.75;;
81310;SDS011;70779;52.506;5.492;2023-11-21T11:11:49;7.90;;;3.90;;
81310;SDS011;70779;52.506;5.492;2023-11-21T11:14:16;11.25;;;4.30;;
81310;SDS011;70779;52.506;5.492;2023-11-21T11:16:45;8.25;;;3.53;;
81310;SDS011;70779;52.506;5.492;2023-11-21T11:19:11;10.68;;;4.68;;
81310;SDS011;70779;52.506;5.492;2023-11-21T11:21:53;7.28;;;3.45;;
81310;SDS011;70779;52.506;5.492;2023-11-21T11:30:11;10.13;;;3.78;;
81310;SDS011;70779;52.506;5.492;2023-11-21T11:36:00;22.40;;;8.15;;
81310;SDS011;70779;52.506;5.492;2023-11-21T11:38:32;27.95;;;9.00;;
81310;SDS011;70779;52.506;5.492;2023-11-21T11:41:01;15.52;;;6.18;;
81310;SDS011;70779;52.506;5.492;2023-11-21T11:43:32;15.82;;;6.43;;
81310;SDS011;70779;52.506;5.492;2023-11-21T11:45:59;10.38;;;4.55;;
81310;SDS011;70779;52.506;5.492;2023-11-21T11:48:29;12.38;;;5.47;;
81310;SDS011;70779;52.506;5.492;2023-11-21T11:51:05;14.23;;;5.50;;
81310;SDS011;70779;52.506;5.492;2023-11-21T11:53:37;11.57;;;4.43;;
81310;SDS011;70779;52.506;5.492;2023-11-21T11:58:54;12.43;;;5.07;;
81310;SDS011;70779;52.506;5.492;2023-11-21T12:01:22;16.08;;;5.60;;
81310;SDS011;70779;52.506;5.492;2023-11-21T12:06:42;15.70;;;5.38;;
81310;SDS011;70779;52.506;5.492;2023-11-21T12:09:27;13.13;;;5.57;;
81310;SDS011;70779;52.506;5.492;2023-11-21T12:11:55;13.82;;;5.57;;
81310;SDS011;70779;52.506;5.492;2023-11-21T12:14:24;13.45;;;5.75;;
81310;SDS011;70779;52.506;5.492;2023-11-21T12:16:51;12.80;;;5.35;;
81310;SDS011;70779;52.506;5.492;2023-11-21T12:19:17;14.02;;;5.82;;
81310;SDS011;70779;52.506;5.492;2023-11-21T12:21:44;11.93;;;5.70;;
81310;SDS011;70779;52.506;5.492;2023-11-21T12:24:10;12.90;;;6.00;;
81310;SDS011;70779;52.506;5.492;2023-11-21T12:26:39;14.00;;;6.07;;
81310;SDS011;70779;52.506;5.492;2023-11-21T12:29:06;13.82;;;6.78;;
81310;SDS011;70779;52.506;5.492;2023-11-21T12:31:33;12.95;;;6.32;;
81310;SDS011;70779;52.506;5.492;2023-11-21T12:34:00;17.10;;;8.18;;
81310;SDS011;70779;52.506;5.492;2023-11-21T12:36:26;15.20;;;6.65;;
81310;SDS011;70779;52.506;5.492;2023-11-21T12:38:55;13.18;;;6.47;;
81310;SDS011;70779;52.506;5.492;2023-11-21T12:41:22;13.18;;;7.57;;
81310;SDS011;70779;52.506;5.492;2023-11-21T12:43:48;12.77;;;7.65;;
81310;SDS011;70779;52.506;5.492;2023-11-21T12:46:14;12.05;;;6.70;;
81310;SDS011;70779;52.506;5.492;2023-11-21T12:48:42;13.05;;;7.45;;
81310;SDS011;70779;52.506;5.492;2023-11-21T12:51:11;11.70;;;6.10;;
81310;SDS011;70779;52.506;5.492;2023-11-21T12:53:39;13.05;;;6.70;;
81310;SDS011;70779;52.506;5.492;2023-11-21T12:58:39;12.60;;;6.70;;
81310;SDS011;70779;52.506;5.492;2023-11-21T13:01:10;13.85;;;7.78;;
81310;SDS011;70779;52.506;5.492;2023-11-21T13:03:43;11.20;;;6.53;;
81310;SDS011;70779;52.506;5.492;2023-11-21T13:06:17;10.98;;;6.30;;
81310;SDS011;70779;52.506;5.492;2023-11-21T13:08:44;12.18;;;7.32;;
81310;SDS011;70779;52.506;5.492;2023-11-21T13:11:11;12.68;;;6.18;;
81310;SDS011;70779;52.506;5.492;2023-11-21T13:13:40;13.90;;;6.35;;
81310;SDS011;70779;52.506;5.492;2023-11-21T13:16:08;12.27;;;6.90;;
81310;SDS011;70779;52.506;5.492;2023-11-21T13:18:35;11.48;;;6.75;;
81310;SDS011;70779;52.506;5.492;2023-11-21T13:21:03;15.30;;;8.82;;
81310;SDS011;70779;52.506;5.492;2023-11-21T13:23:39;13.55;;;6.97;;
81310;SDS011;70779;52.506;5.492;2023-11-21T13:26:07;14.95;;;8.38;;
81310;SDS011;70779;52.506;5.492;2023-11-21T13:28:34;12.57;;;7.07;;
81310;SDS011;70779;52.506;5.492;2023-11-21T13:31:03;10.70;;;6.55;;
81310;SDS011;70779;52.506;5.492;2023-11-21T13:36:23;11.07;;;6.40;;
81310;SDS011;70779;52.506;5.492;2023-11-21T13:38:50;9.63;;;5.78;;
81310;SDS011;70779;52.506;5.492;2023-11-21T13:41:20;12.18;;;7.47;;
81310;SDS011;70779;52.506;5.492;2023-11-21T13:43:53;12.60;;;6.65;;
81310;SDS011;70779;52.506;5.492;2023-11-21T13:46:29;11.25;;;7.13;;
81310;SDS011;70779;52.506;5.492;2023-11-21T13:49:00;12.32;;;7.63;;
81310;SDS011;70779;52.506;5.492;2023-11-21T13:51:26;9.80;;;6.85;;
81310;SDS011;70779;52.506;5.492;2023-11-21T13:54:07;11.40;;;6.75;;
81310;SDS011;70779;52.506;5.492;2023-11-21T13:56:35;10.15;;;6.97;;
81310;SDS011;70779;52.506;5.492;2023-11-21T13:59:02;11.30;;;7.40;;
81310;SDS011;70779;52.506;5.492;2023-11-21T14:01:40;9.38;;;6.40;;
81310;SDS011;70779;52.506;5.492;2023-11-21T14:04:18;10.13;;;6.55;;
81310;SDS011;70779;52.506;5.492;2023-11-21T14:06:51;9.25;;;6.28;;
81310;SDS011;70779;52.506;5.492;2023-11-21T14:09:20;10.18;;;6.70;;
81310;SDS011;70779;52.506;5.492;2023-11-21T14:11:49;9.30;;;6.30;;
81310;SDS011;70779;52.506;5.492;2023-11-21T14:14:22;10.48;;;7.07;;
81310;SDS011;70779;52.506;5.492;2023-11-21T14:16:53;10.95;;;8.07;;
81310;SDS011;70779;52.506;5.492;2023-11-21T14:19:21;9.80;;;6.53;;
81310;SDS011;70779;52.506;5.492;2023-11-21T14:21:52;9.45;;;6.28;;
81310;SDS011;70779;52.506;5.492;2023-11-21T14:24:18;9.70;;;5.93;;
81310;SDS011;70779;52.506;5.492;2023-11-21T14:26:45;8.65;;;5.65;;
81310;SDS011;70779;52.506;5.492;2023-11-21T14:29:12;8.40;;;6.07;;
81310;SDS011;70779;52.506;5.492;2023-11-21T14:31:41;10.23;;;6.07;;
81310;SDS011;70779;52.506;5.492;2023-11-21T14:34:09;8.88;;;6.97;;
81310;SDS011;70779;52.506;5.492;2023-11-21T14:36:36;10.15;;;6.63;;
81310;SDS011;70779;52.506;5.492;2023-11-21T14:39:03;11.90;;;8.05;;
81310;SDS011;70779;52.506;5.492;2023-11-21T14:41:32;10.45;;;5.68;;
81310;SDS011;70779;52.506;5.492;2023-11-21T14:44:01;11.88;;;7.03;;
81310;SDS011;70779;52.506;5.492;2023-11-21T14:46:29;9.38;;;5.90;;
81310;SDS011;70779;52.506;5.492;2023-11-21T14:48:55;11.10;;;7.45;;
81310;SDS011;70779;52.506;5.492;2023-11-21T14:51:28;14.25;;;6.95;;
81310;SDS011;70779;52.506;5.492;2023-11-21T14:53:57;9.52;;;6.70;;
81310;SDS011;70779;52.506;5.492;2023-11-21T14:56:32;10.20;;;6.75;;
81310;SDS011;70779;52.506;5.492;2023-11-21T14:59:02;10.52;;;6.60;;
81310;SDS011;70779;52.506;5.492;2023-11-21T15:01:37;10.38;;;6.50;;
81310;SDS011;70779;52.506;5.492;2023-11-21T15:04:19;9.85;;;6.50;;
81310;SDS011;70779;52.506;5.492;2023-11-21T15:07:02;10.65;;;6.45;;
81310;SDS011;70779;52.506;5.492;2023-11-21T15:09:31;10.48;;;5.82;;
81310;SDS011;70779;52.506;5.492;2023-11-21T15:11:58;9.45;;;5.32;;
81310;SDS011;70779;52.506;5.492;2023-11-21T15:14:38;10.65;;;5.50;;
81310;SDS011;70779;52.506;5.492;2023-11-21T15:17:04;8.35;;;5.38;;
81310;SDS011;70779;52.506;5.492;2023-11-21T15:19:30;12.70;;;5.50;;
81310;SDS011;70779;52.506;5.492;2023-11-21T15:21:57;8.98;;;5.90;;
81310;SDS011;70779;52.506;5.492;2023-11-21T15:24:23;9.13;;;5.75;;
81310;SDS011;70779;52.506;5.492;2023-11-21T15:26:50;9.55;;;5.60;;
81310;SDS011;70779;52.506;5.492;2023-11-21T15:29:16;10.30;;;5.50;;
81310;SDS011;70779;52.506;5.492;2023-11-21T15:31:43;8.65;;;5.13;;
81310;SDS011;70779;52.506;5.492;2023-11-21T15:34:14;9.23;;;4.97;;
81310;SDS011;70779;52.506;5.492;2023-11-21T15:36:40;9.68;;;5.07;;
81310;SDS011;70779;52.506;5.492;2023-11-21T15:39:07;8.70;;;5.13;;
81310;SDS011;70779;52.506;5.492;2023-11-21T15:41:37;12.77;;;6.72;;
81310;SDS011;70779;52.506;5.492;2023-11-21T15:44:05;7.93;;;4.85;;
81310;SDS011;70779;52.506;5.492;2023-11-21T15:46:34;10.15;;;5.45;;
81310;SDS011;70779;52.506;5.492;2023-11-21T15:49:01;8.68;;;4.38;;
81310;SDS011;70779;52.506;5.492;2023-11-21T15:51:29;9.57;;;5.47;;
81310;SDS011;70779;52.506;5.492;2023-11-21T15:53:55;8.98;;;4.97;;
81310;SDS011;70779;52.506;5.492;2023-11-21T15:56:22;8.80;;;5.45;;
81310;SDS011;70779;52.506;5.492;2023-11-21T15:58:48;9.77;;;5.30;;
81310;SDS011;70779;52.506;5.492;2023-11-21T16:01:14;7.70;;;4.75;;
81310;SDS011;70779;52.506;5.492;2023-11-21T16:03:41;8.23;;;4.70;;
81310;SDS011;70779;52.506;5.492;2023-11-21T16:06:11;8.45;;;5.28;;
81310;SDS011;70779;52.506;5.492;2023-11-21T16:08:38;10.63;;;5.43;;
81310;SDS011;70779;52.506;5.492;2023-11-21T16:11:04;10.13;;;5.88;;
81310;SDS011;70779;52.506;5.492;2023-11-21T16:13:30;9.98;;;5.78;;
81310;SDS011;70779;52.506;5.492;2023-11-21T16:15:56;11.05;;;5.70;;
81310;SDS011;70779;52.506;5.492;2023-11-21T16:18:22;9.15;;;4.97;;
81310;SDS011;70779;52.506;5.492;2023-11-21T16:20:49;9.00;;;5.50;;
81310;SDS011;70779;52.506;5.492;2023-11-21T16:23:16;11.63;;;6.57;;
81310;SDS011;70779;52.506;5.492;2023-11-21T16:25:42;11.57;;;6.50;;
81310;SDS011;70779;52.506;5.492;2023-11-21T16:28:09;11.15;;;7.22;;
81310;SDS011;70779;52.506;5.492;2023-11-21T16:30:35;10.90;;;6.28;;
81310;SDS011;70779;52.506;5.492;2023-11-21T16:33:01;10.80;;;6.55;;
81310;SDS011;70779;52.506;5.492;2023-11-21T16:35:28;14.30;;;6.97;;
81310;SDS011;70779;52.506;5.492;2023-11-21T16:37:55;11.15;;;6.25;;
81310;SDS011;70779;52.506;5.492;2023-11-21T16:40:22;12.80;;;6.55;;
81310;SDS011;70779;52.506;5.492;2023-11-21T16:42:48;13.00;;;7.25;;
81310;SDS011;70779;52.506;5.492;2023-11-21T16:45:14;20.23;;;11.32;;
81310;SDS011;70779;52.506;5.492;2023-11-21T16:47:43;19.33;;;11.63;;
81310;SDS011;70779;52.506;5.492;2023-11-21T16:50:09;15.57;;;9.43;;
81310;SDS011;70779;52.506;5.492;2023-11-21T16:52:35;14.35;;;7.50;;
81310;SDS011;70779;52.506;5.492;2023-11-21T16:55:03;12.82;;;6.45;;
81310;SDS011;70779;52.506;5.492;2023-11-21T16:57:30;20.20;;;10.90;;
81310;SDS011;70779;52.506;5.492;2023-11-21T16:59:56;37.83;;;17.42;;
81310;SDS011;70779;52.506;5.492;2023-11-21T17:02:22;16.58;;;9.80;;
81310;SDS011;70779;52.506;5.492;2023-11-21T17:04:48;15.55;;;9.07;;
81310;SDS011;70779;52.506;5.492;2023-11-21T17:07:15;15.32;;;10.88;;
81310;SDS011;70779;52.506;5.492;2023-11-21T17:09:42;14.65;;;9.27;;
81310;SDS011;70779;52.506;5.492;2023-11-21T17:12:09;13.85;;;8.25;;
81310;SDS011;70779;52.506;5.492;2023-11-21T17:14:35;14.35;;;9.35;;
81310;SDS011;70779;52.506;5.492;2023-11-21T17:17:01;14.98;;;7.80;;
81310;SDS011;70779;52.506;5.492;2023-11-21T17:19:27;13.68;;;7.75;;
81310;SDS011;70779;52.506;5.492;2023-11-21T17:21:57;18.38;;;8.93;;
81310;SDS011;70779;52.506;5.492;2023-11-21T17:24:23;14.05;;;8.02;;
81310;SDS011;70779;52.506;5.492;2023-11-21T17:26:49;17.48;;;8.82;;
81310;SDS011;70779;52.506;5.492;2023-11-21T17:29:15;17.02;;;9.55;;
81310;SDS011;70779;52.506;5.492;2023-11-21T17:31:43;17.38;;;9.23;;
81310;SDS011;70779;52.506;5.492;2023-11-21T17:34:10;23.42;;;11.70;;
81310;SDS011;70779;52.506;5.492;2023-11-21T17:36:36;25.77;;;12.30;;
81310;SDS011;70779;52.506;5.492;2023-11-21T17:39:03;18.05;;;10.05;;
81310;SDS011;70779;52.506;5.492;2023-11-21T17:41:34;15.43;;;8.75;;
81310;SDS011;70779;52.506;5.492;2023-11-21T17:44:02;16.05;;;8.57;;
81310;SDS011;70779;52.506;5.492;2023-11-21T17:46:32;16.10;;;8.68;;
81310;SDS011;70779;52.506;5.492;2023-11-21T17:48:58;18.98;;;9.00;;
81310;SDS011;70779;52.506;5.492;2023-11-21T17:51:24;18.08;;;9.10;;
81310;SDS011;70779;52.506;5.492;2023-11-21T17:53:51;18.25;;;9.60;;
81310;SDS011;70779;52.506;5.492;2023-11-21T17:56:19;19.77;;;11.25;;
81310;SDS011;70779;52.506;5.492;2023-11-21T17:58:45;17.60;;;10.23;;
81310;SDS011;70779;52.506;5.492;2023-11-21T18:01:11;20.88;;;10.88;;
81310;SDS011;70779;52.506;5.492;2023-11-21T18:03:38;19.88;;;10.30;;
81310;SDS011;70779;52.506;5.492;2023-11-21T18:06:04;22.52;;;13.02;;
81310;SDS011;70779;52.506;5.492;2023-11-21T18:08:31;16.73;;;9.45;;
81310;SDS011;70779;52.506;5.492;2023-11-21T18:10:57;20.95;;;12.60;;
81310;SDS011;70779;52.506;5.492;2023-11-21T18:13:25;16.75;;;12.98;;
81310;SDS011;70779;52.506;5.492;2023-11-21T18:15:51;16.67;;;8.98;;
81310;SDS011;70779;52.506;5.492;2023-11-21T18:18:17;13.55;;;8.48;;
81310;SDS011;70779;52.506;5.492;2023-11-21T18:20:43;13.50;;;7.80;;
81310;SDS011;70779;52.506;5.492;2023-11-21T18:23:10;13.63;;;7.13;;
81310;SDS011;70779;52.506;5.492;2023-11-21T18:25:37;15.00;;;7.03;;
81310;SDS011;70779;52.506;5.492;2023-11-21T18:28:04;22.00;;;11.68;;
81310;SDS011;70779;52.506;5.492;2023-11-21T18:30:30;14.80;;;7.03;;
81310;SDS011;70779;52.506;5.492;2023-11-21T18:32:56;17.02;;;7.22;;
81310;SDS011;70779;52.506;5.492;2023-11-21T18:35:22;12.90;;;7.55;;
81310;SDS011;70779;52.506;5.492;2023-11-21T18:37:49;13.90;;;7.10;;
81310;SDS011;70779;52.506;5.492;2023-11-21T18:40:16;13.65;;;7.60;;
81310;SDS011;70779;52.506;5.492;2023-11-21T18:42:42;12.60;;;7.45;;
81310;SDS011;70779;52.506;5.492;2023-11-21T18:45:11;14.15;;;7.60;;
81310;SDS011;70779;52.506;5.492;2023-11-21T18:47:38;12.45;;;7.85;;
81310;SDS011;70779;52.506;5.492;2023-11-21T18:50:05;12.52;;;6.80;;
81310;SDS011;70779;52.506;5.492;2023-11-21T18:52:32;14.05;;;7.85;;
81310;SDS011;70779;52.506;5.492;2023-11-21T18:54:58;15.95;;;8.52;;
81310;SDS011;70779;52.506;5.492;2023-11-21T18:57:27;13.93;;;9.25;;
81310;SDS011;70779;52.506;5.492;2023-11-21T18:59:54;16.30;;;9.60;;
81310;SDS011;70779;52.506;5.492;2023-11-21T19:02:21;16.50;;;10.07;;
81310;SDS011;70779;52.506;5.492;2023-11-21T19:04:47;14.10;;;8.07;;
81310;SDS011;70779;52.506;5.492;2023-11-21T19:07:13;15.50;;;8.55;;
81310;SDS011;70779;52.506;5.492;2023-11-21T19:09:39;14.02;;;7.82;;
81310;SDS011;70779;52.506;5.492;2023-11-21T19:12:06;17.20;;;8.27;;
81310;SDS011;70779;52.506;5.492;2023-11-21T19:14:32;16.67;;;8.75;;
81310;SDS011;70779;52.506;5.492;2023-11-21T19:16:58;15.77;;;8.45;;
81310;SDS011;70779;52.506;5.492;2023-11-21T19:19:24;20.02;;;8.93;;
81310;SDS011;70779;52.506;5.492;2023-11-21T19:21:50;17.10;;;8.60;;
81310;SDS011;70779;52.506;5.492;2023-11-21T19:24:17;17.70;;;8.88;;
81310;SDS011;70779;52.506;5.492;2023-11-21T19:26:44;17.17;;;9.68;;
81310;SDS011;70779;52.506;5.492;2023-11-21T19:29:10;23.77;;;11.93;;
81310;SDS011;70779;52.506;5.492;2023-11-21T19:31:37;39.58;;;16.13;;
81310;SDS011;70779;52.506;5.492;2023-11-21T19:34:03;35.38;;;15.90;;
81310;SDS011;70779;52.506;5.492;2023-11-21T19:36:30;32.67;;;15.60;;
81310;SDS011;70779;52.506;5.492;2023-11-21T19:38:56;30.38;;;14.95;;
81310;SDS011;70779;52.506;5.492;2023-11-21T19:41:23;16.98;;;10.07;;
81310;SDS011;70779;52.506;5.492;2023-11-21T19:43:50;19.52;;;9.85;;
81310;SDS011;70779;52.506;5.492;2023-11-21T19:46:19;18.85;;;11.07;;
81310;SDS011;70779;52.506;5.492;2023-11-21T19:48:49;17.83;;;10.38;;
81310;SDS011;70779;52.506;5.492;2023-11-21T19:51:18;11.98;;;7.10;;
81310;SDS011;70779;52.506;5.492;2023-11-21T19:53:44;17.10;;;8.68;;
81310;SDS011;70779;52.506;5.492;2023-11-21T19:56:10;27.98;;;14.93;;
81310;SDS011;70779;52.506;5.492;2023-11-21T19:58:37;24.83;;;15.25;;
81310;SDS011;70779;52.506;5.492;2023-11-21T20:01:03;26.58;;;16.85;;
81310;SDS011;70779;52.506;5.492;2023-11-21T20:03:29;24.30;;;15.43;;
81310;SDS011;70779;52.506;5.492;2023-11-21T20:05:55;14.27;;;9.43;;
81310;SDS011;70779;52.506;5.492;2023-11-21T20:08:22;17.27;;;9.63;;
81310;SDS011;70779;52.506;5.492;2023-11-21T20:10:48;14.95;;;9.82;;
81310;SDS011;70779;52.506;5.492;2023-11-21T20:13:14;16.58;;;10.20;;
81310;SDS011;70779;52.506;5.492;2023-11-21T20:15:42;14.10;;;8.10;;
81310;SDS011;70779;52.506;5.492;2023-11-21T20:18:09;15.02;;;8.57;;
81310;SDS011;70779;52.506;5.492;2023-11-21T20:20:38;13.07;;;8.73;;
81310;SDS011;70779;52.506;5.492;2023-11-21T20:23:04;16.13;;;9.30;;
81310;SDS011;70779;52.506;5.492;2023-11-21T20:25:30;15.82;;;8.80;;
81310;SDS011;70779;52.506;5.492;2023-11-21T20:27:56;16.13;;;8.88;;
81310;SDS011;70779;52.506;5.492;2023-11-21T20:30:25;19.63;;;8.43;;
81310;SDS011;70779;52.506;5.492;2023-11-21T20:35:23;15.20;;;9.32;;
81310;SDS011;70779;52.506;5.492;2023-11-21T20:37:49;14.60;;;8.82;;
81310;SDS011;70779;52.506;5.492;2023-11-21T20:40:16;14.35;;;9.13;;
81310;SDS011;70779;52.506;5.492;2023-11-21T20:42:43;15.60;;;10.05;;
81310;SDS011;70779;52.506;5.492;2023-11-21T20:45:12;15.25;;;9.23;;
81310;SDS011;70779;52.506;5.492;2023-11-21T20:47:42;16.88;;;9.30;;
81310;SDS011;70779;52.506;5.492;2023-11-21T20:50:08;17.35;;;10.27;;
81310;SDS011;70779;52.506;5.492;2023-11-21T20:52:35;15.02;;;9.45;;